createdAt,value
2019-04-16T00:00:22.436Z,6.8
2019-04-16T00:01:24.556Z,6.7
2019-04-16T00:02:26.684Z,6.6
2019-04-16T00:03:28.791Z,6.9
2019-04-16T00:04:30.931Z,6.7
2019-04-16T00:05:33.322Z,6.8
2019-04-16T00:06:35.423Z,6.8
2019-04-16T00:07:37.540Z,7
2019-04-16T00:08:39.666Z,7
2019-04-16T00:09:41.776Z,7.1
2019-04-16T00:10:44.176Z,6.7
2019-04-16T00:11:46.590Z,6.5
2019-04-16T00:12:48.704Z,6.8
2019-04-16T00:13:50.827Z,6.7
2019-04-16T00:14:52.969Z,6.8
2019-04-16T00:15:55.424Z,7
2019-04-16T00:16:57.587Z,6.7
2019-04-16T00:18:00.112Z,6.6
2019-04-16T00:19:07.708Z,6.7
2019-04-16T00:20:09.837Z,6.3
2019-04-16T00:21:12.350Z,6.5
2019-04-16T00:22:14.458Z,6.2
2019-04-16T00:23:16.858Z,6.4
2019-04-16T00:24:20.509Z,6.3
2019-04-16T00:25:22.909Z,6.4
2019-04-16T00:26:28.480Z,6.5
2019-04-16T00:27:30.880Z,6.6
2019-04-16T00:28:33.409Z,6.3
2019-04-16T00:29:35.797Z,6.5
2019-04-16T00:30:38.299Z,6.4
2019-04-16T00:31:40.404Z,6.3
2019-04-16T00:32:44.091Z,6.3
2019-04-16T00:33:46.201Z,6.5
2019-04-16T00:34:48.324Z,6.4
2019-04-16T00:35:50.725Z,6.1
2019-04-16T00:36:52.822Z,6.5
2019-04-16T00:37:55.013Z,6.4
2019-04-16T00:38:57.482Z,6.6
2019-04-16T00:39:59.803Z,6.5
2019-04-16T00:41:04.139Z,6.4
2019-04-16T00:42:06.376Z,6.3
2019-04-16T00:43:08.527Z,6.3
2019-04-16T00:44:10.644Z,6.1
2019-04-16T00:45:12.768Z,6.3
2019-04-16T00:46:14.878Z,6.4
2019-04-16T00:47:16.989Z,6.6
2019-04-16T00:48:19.109Z,6.5
2019-04-16T00:49:21.211Z,6.5
2019-04-16T00:50:28.395Z,6.3
2019-04-16T00:51:30.510Z,6.3
2019-04-16T00:52:38.334Z,6.3
2019-04-16T00:53:40.864Z,6.4
2019-04-16T00:54:44.497Z,5.8
2019-04-16T00:55:46.953Z,6.5
2019-04-16T00:56:49.342Z,6.6
2019-04-16T00:57:51.463Z,6.5
2019-04-16T00:58:54.619Z,6.4
2019-04-16T00:59:57.991Z,6
2019-04-16T01:01:00.263Z,6.2
2019-04-16T01:02:02.769Z,6.1
2019-04-16T01:03:05.567Z,6.2
2019-04-16T01:04:08.122Z,6.3
2019-04-16T01:05:10.553Z,6.3
2019-04-16T01:06:12.651Z,6
2019-04-16T01:07:14.782Z,6.2
2019-04-16T01:08:17.360Z,6.1
2019-04-16T01:09:19.478Z,6.3
2019-04-16T01:10:21.645Z,6.5
2019-04-16T01:11:24.048Z,6.4
2019-04-16T01:12:26.169Z,6.4
2019-04-16T01:13:28.286Z,6.2
2019-04-16T01:14:30.403Z,6.6
2019-04-16T01:15:33.722Z,6.6
2019-04-16T01:16:36.118Z,6.6
2019-04-16T01:17:38.521Z,6.3
2019-04-16T01:18:40.627Z,5.9
2019-04-16T01:19:43.050Z,6.3
2019-04-16T01:20:45.176Z,6.2
2019-04-16T01:21:47.276Z,6.2
2019-04-16T01:22:49.398Z,6.2
2019-04-16T01:23:51.885Z,5.8
2019-04-16T01:24:53.990Z,6.3
2019-04-16T01:25:57.677Z,6
2019-04-16T01:27:00.618Z,5.9
2019-04-16T01:28:02.811Z,6.3
2019-04-16T01:29:05.456Z,5.9
2019-04-16T01:30:08.099Z,5.7
2019-04-16T01:31:10.435Z,5.7
2019-04-16T01:32:13.273Z,6.1
2019-04-16T01:33:16.413Z,6
2019-04-16T01:34:19.640Z,6
2019-04-16T01:35:22.060Z,5.8
2019-04-16T01:36:24.838Z,6.1
2019-04-16T01:37:27.639Z,6.1
2019-04-16T01:38:29.783Z,5.9
2019-04-16T01:39:31.932Z,6
2019-04-16T01:40:34.113Z,5.9
2019-04-16T01:41:36.504Z,5.9
2019-04-16T01:42:38.610Z,5.9
2019-04-16T01:43:40.739Z,6.3
2019-04-16T01:44:42.831Z,5.9
2019-04-16T01:45:44.943Z,5.9
2019-04-16T01:46:47.069Z,5.8
2019-04-16T01:47:49.473Z,5.6
2019-04-16T01:48:51.570Z,5.8
2019-04-16T01:49:53.695Z,5.9
2019-04-16T01:50:55.799Z,6.1
2019-04-16T01:51:58.309Z,6.2
2019-04-16T01:53:00.565Z,5.8
2019-04-16T01:54:02.843Z,6.1
2019-04-16T01:55:05.177Z,6.3
2019-04-16T01:56:07.456Z,6.2
2019-04-16T01:57:10.261Z,5.8
2019-04-16T01:58:12.371Z,5.6
2019-04-16T01:59:14.505Z,6.3
2019-04-16T02:00:16.600Z,6.1
2019-04-16T02:01:19.464Z,6
2019-04-16T02:02:21.585Z,6
2019-04-16T02:03:23.767Z,6
2019-04-16T02:04:25.904Z,5.8
2019-04-16T02:05:28.029Z,5.8
2019-04-16T02:06:30.139Z,5.9
2019-04-16T02:07:32.242Z,5.9
2019-04-16T02:08:34.382Z,6.4
2019-04-16T02:09:37.132Z,5.9
2019-04-16T02:10:40.865Z,6
2019-04-16T02:11:43.267Z,5.7
2019-04-16T02:12:45.646Z,5.8
2019-04-16T02:13:48.097Z,5.7
2019-04-16T02:14:52.143Z,5.8
2019-04-16T02:15:55.445Z,5.7
2019-04-16T02:16:57.810Z,5.9
2019-04-16T02:18:01.266Z,5.7
2019-04-16T02:19:03.937Z,5.6
2019-04-16T02:20:08.779Z,5.6
2019-04-16T02:21:12.355Z,5.5
2019-04-16T02:22:15.240Z,5.6
2019-04-16T02:23:18.806Z,5.5
2019-04-16T02:24:20.911Z,5.8
2019-04-16T02:25:23.340Z,5.7
2019-04-16T02:26:25.470Z,5.5
2019-04-16T02:27:28.173Z,5.8
2019-04-16T02:28:30.285Z,5.6
2019-04-16T02:29:32.420Z,5.8
2019-04-16T02:30:41.135Z,5.7
2019-04-16T02:31:43.563Z,5.3
2019-04-16T02:32:46.033Z,5.5
2019-04-16T02:33:48.137Z,5.8
2019-04-16T02:34:51.634Z,5.9
2019-04-16T02:35:54.095Z,5.8
2019-04-16T02:37:04.677Z,5.7
2019-04-16T02:38:15.000Z,5.9
2019-04-16T02:39:17.516Z,6
2019-04-16T02:40:20.203Z,5.5
2019-04-16T02:41:25.652Z,5.7
2019-04-16T02:42:33.098Z,5.8
2019-04-16T02:43:42.182Z,5.5
2019-04-16T02:44:51.307Z,5.2
2019-04-16T02:46:00.052Z,5.8
2019-04-16T02:47:10.023Z,6.1
2019-04-16T02:48:18.166Z,5.7
2019-04-16T02:49:26.149Z,5.8
2019-04-16T02:50:33.242Z,6
2019-04-16T02:51:42.571Z,5.6
2019-04-16T02:52:53.877Z,5.5
2019-04-16T02:54:01.583Z,5.7
2019-04-16T02:55:12.452Z,5.3
2019-04-16T02:56:20.300Z,5.4
2019-04-16T02:57:29.081Z,5.5
2019-04-16T02:58:36.251Z,5.3
2019-04-16T02:59:45.655Z,5.4
2019-04-16T03:00:51.712Z,5.5
2019-04-16T03:01:53.847Z,5.3
2019-04-16T03:02:55.958Z,5.7
2019-04-16T03:03:58.059Z,5.5
2019-04-16T03:05:00.196Z,5.7
2019-04-16T03:06:03.037Z,5.4
2019-04-16T03:07:06.591Z,5.5
2019-04-16T03:08:08.842Z,5.6
2019-04-16T03:09:11.802Z,5.7
2019-04-16T03:10:15.297Z,5.3
2019-04-16T03:11:19.784Z,5.5
2019-04-16T03:12:23.034Z,5.3
2019-04-16T03:13:25.178Z,5.2
2019-04-16T03:14:32.392Z,5.2
2019-04-16T03:15:34.928Z,5.2
2019-04-16T03:16:39.942Z,5.3
2019-04-16T03:17:44.674Z,5.3
2019-04-16T03:18:49.334Z,5
2019-04-16T03:19:53.303Z,5.3
2019-04-16T03:20:57.890Z,5.2
2019-04-16T03:22:04.815Z,5.3
2019-04-16T03:23:08.056Z,5.2
2019-04-16T03:24:11.940Z,5.6
2019-04-16T03:25:15.875Z,5.5
2019-04-16T03:26:19.288Z,5.5
2019-04-16T03:27:23.975Z,5.7
2019-04-16T03:28:29.413Z,5.3
2019-04-16T03:29:32.355Z,5.7
2019-04-16T03:30:43.742Z,5.3
2019-04-16T03:31:45.901Z,5.4
2019-04-16T03:32:48.305Z,5.3
2019-04-16T03:33:52.547Z,5.2
2019-04-16T03:34:55.267Z,5.3
2019-04-16T03:35:59.546Z,5.8
2019-04-16T03:37:04.754Z,5.8
2019-04-16T03:38:08.056Z,5.2
2019-04-16T03:39:15.180Z,5.2
2019-04-16T03:40:26.773Z,5.1
2019-04-16T03:41:28.888Z,5.1
2019-04-16T03:42:30.986Z,5.4
2019-04-16T03:43:34.156Z,5.2
2019-04-16T03:44:38.492Z,5.2
2019-04-16T03:45:42.056Z,5.2
2019-04-16T03:46:48.565Z,5.3
2019-04-16T03:47:53.347Z,5.2
2019-04-16T03:48:57.419Z,5.3
2019-04-16T03:50:01.565Z,5.1
2019-04-16T03:51:05.993Z,5.4
2019-04-16T03:52:10.861Z,5.4
2019-04-16T03:53:19.175Z,5.2
2019-04-16T03:54:24.120Z,5.3
2019-04-16T03:55:27.767Z,5.6
2019-04-16T03:56:32.262Z,5.6
2019-04-16T03:57:35.029Z,5.6
2019-04-16T03:58:40.292Z,5.1
2019-04-16T03:59:42.407Z,5.1
2019-04-16T04:00:46.040Z,5.7
2019-04-16T04:01:48.155Z,5.7
2019-04-16T04:02:56.511Z,5.7
2019-04-16T04:04:00.013Z,5.7
2019-04-16T04:05:08.489Z,5.6
2019-04-16T04:06:10.609Z,5.7
2019-04-16T04:07:14.666Z,5.7
2019-04-16T04:08:19.246Z,5.6
2019-04-16T04:09:23.851Z,5.8
2019-04-16T04:10:38.609Z,6
2019-04-16T04:11:43.604Z,5.8
2019-04-16T04:12:47.549Z,5.5
2019-04-16T04:13:51.884Z,5.7
2019-04-16T04:14:56.126Z,5.6
2019-04-16T04:16:03.142Z,5.3
2019-04-16T04:17:08.453Z,5.3
2019-04-16T04:18:14.191Z,5.4
2019-04-16T04:19:17.297Z,5.4
2019-04-16T04:20:20.663Z,5.7
2019-04-16T04:21:23.877Z,5.7
2019-04-16T04:22:27.620Z,5.7
2019-04-16T04:23:30.583Z,5.8
2019-04-16T04:24:33.318Z,5.6
2019-04-16T04:25:38.025Z,5.6
2019-04-16T04:26:43.752Z,5.5
2019-04-16T04:27:48.986Z,5.1
2019-04-16T04:28:53.601Z,5.7
2019-04-16T04:29:58.326Z,5.8
2019-04-16T04:31:03.164Z,5.6
2019-04-16T04:32:05.526Z,5.6
2019-04-16T04:33:11.396Z,5.5
2019-04-16T04:34:19.053Z,5.5
2019-04-16T04:35:24.020Z,5.7
2019-04-16T04:36:30.058Z,5.4
2019-04-16T04:37:33.536Z,5.5
2019-04-16T04:38:40.186Z,5.8
2019-04-16T04:39:46.126Z,5.9
2019-04-16T04:40:53.206Z,5.8
2019-04-16T04:41:58.221Z,5.8
2019-04-16T04:43:03.116Z,5.6
2019-04-16T04:44:06.691Z,5.7
2019-04-16T04:45:11.530Z,5.7
2019-04-16T04:46:16.885Z,5.6
2019-04-16T04:47:21.311Z,5.9
2019-04-16T04:48:25.273Z,5.7
2019-04-16T04:49:32.044Z,5.7
2019-04-16T04:50:37.297Z,5.6
2019-04-16T04:51:44.842Z,5.7
2019-04-16T04:52:48.181Z,5.8
2019-04-16T04:53:52.676Z,6
2019-04-16T04:54:55.902Z,6.1
2019-04-16T04:55:58.847Z,5.8
2019-04-16T04:57:01.375Z,6.1
2019-04-16T04:58:04.439Z,6
2019-04-16T04:59:07.450Z,5.9
2019-04-16T05:00:11.395Z,5.7
2019-04-16T05:01:15.584Z,5.9
2019-04-16T05:02:18.062Z,5.8
2019-04-16T05:03:20.362Z,5.7
2019-04-16T05:04:22.520Z,6
2019-04-16T05:05:27.159Z,6
2019-04-16T05:06:29.326Z,5.9
2019-04-16T05:07:31.431Z,5.8
2019-04-16T05:08:33.540Z,5.5
2019-04-16T05:09:37.829Z,5.3
2019-04-16T05:11:03.755Z,5.6
2019-04-16T05:12:09.797Z,5.9
2019-04-16T05:13:12.056Z,6.1
2019-04-16T05:14:14.646Z,6.2
2019-04-16T05:15:16.967Z,6.2
2019-04-16T05:16:19.082Z,6.3
2019-04-16T05:17:21.496Z,6.5
2019-04-16T05:18:23.616Z,6.1
2019-04-16T05:19:25.741Z,6
2019-04-16T05:20:31.347Z,5.9
2019-04-16T05:21:33.722Z,5.9
2019-04-16T05:22:35.933Z,6.3
2019-04-16T05:23:38.894Z,6.1
2019-04-16T05:24:41.398Z,5.9
2019-04-16T05:25:43.521Z,5.7
2019-04-16T05:26:45.614Z,5.7
2019-04-16T05:27:47.744Z,6
2019-04-16T05:28:49.856Z,6
2019-04-16T05:29:51.997Z,6.3
2019-04-16T05:30:54.302Z,5.9
2019-04-16T05:31:59.305Z,6.1
2019-04-16T05:33:07.196Z,5.7
2019-04-16T05:34:09.589Z,6.1
2019-04-16T05:35:12.499Z,6.2
2019-04-16T05:36:16.674Z,6
2019-04-16T05:37:22.001Z,6.1
2019-04-16T05:38:25.709Z,5.9
2019-04-16T05:39:29.538Z,5.7
2019-04-16T05:40:36.370Z,5.6
2019-04-16T05:41:39.139Z,6.2
2019-04-16T05:42:41.524Z,6.3
2019-04-16T05:43:43.943Z,6.2
2019-04-16T05:44:46.044Z,6.5
2019-04-16T05:45:48.158Z,6.3
2019-04-16T05:46:50.276Z,6.4
2019-04-16T05:47:52.404Z,6
2019-04-16T05:48:55.569Z,6.4
2019-04-16T05:49:59.712Z,6.6
2019-04-16T05:51:01.843Z,6.6
2019-04-16T05:52:05.492Z,6.7
2019-04-16T05:53:14.268Z,6.7
2019-04-16T05:54:16.627Z,6.7
2019-04-16T05:55:20.711Z,6.8
2019-04-16T05:56:26.175Z,6.9
2019-04-16T05:57:28.754Z,6.8
2019-04-16T05:58:32.512Z,6.9
2019-04-16T05:59:35.871Z,6.4
2019-04-16T06:00:43.150Z,6.5
2019-04-16T06:01:47.165Z,6.6
2019-04-16T06:02:52.091Z,6.9
2019-04-16T06:03:55.286Z,7.1
2019-04-16T06:04:57.687Z,7
2019-04-16T06:06:01.299Z,6.8
2019-04-16T06:07:08.711Z,6.9
2019-04-16T06:08:11.448Z,6.8
2019-04-16T06:09:14.768Z,6.9
2019-04-16T06:10:20.487Z,7.1
2019-04-16T06:11:37.748Z,7.2
2019-04-16T06:12:41.718Z,6.9
2019-04-16T06:13:46.587Z,7
2019-04-16T06:14:54.784Z,7.6
2019-04-16T06:15:57.179Z,7.3
2019-04-16T06:16:59.591Z,7.2
2019-04-16T06:18:07.028Z,7.5
2019-04-16T06:19:13.069Z,7.4
2019-04-16T06:20:22.617Z,7.4
2019-04-16T06:21:27.919Z,7.1
2019-04-16T06:22:31.272Z,7.2
2019-04-16T06:23:33.881Z,7.4
2019-04-16T06:24:40.321Z,7.3
2019-04-16T06:25:43.560Z,7.6
2019-04-16T06:26:49.357Z,7.9
2019-04-16T06:27:51.841Z,7.5
2019-04-16T06:29:01.066Z,7.8
2019-04-16T06:30:03.852Z,7.7
2019-04-16T06:31:11.173Z,7.8
2019-04-16T06:32:13.357Z,7.5
2019-04-16T06:33:15.976Z,7.6
2019-04-16T06:34:18.104Z,7.8
2019-04-16T06:35:20.510Z,7.8
2019-04-16T06:36:22.814Z,7.7
2019-04-16T06:37:28.853Z,7.7
2019-04-16T06:38:30.958Z,7.3
2019-04-16T06:39:33.090Z,7.3
2019-04-16T06:40:35.207Z,7.5
2019-04-16T06:41:52.850Z,7.4
2019-04-16T06:42:55.824Z,7.2
2019-04-16T06:44:03.697Z,7.4
2019-04-16T06:45:07.267Z,7.4
2019-04-16T06:46:10.851Z,7.5
2019-04-16T06:47:12.984Z,7.6
2019-04-16T06:48:15.206Z,7.3
2019-04-16T06:49:20.291Z,7.3
2019-04-16T06:50:41.845Z,7.6
2019-04-16T06:51:45.990Z,8
2019-04-16T06:52:50.822Z,7.6
2019-04-16T06:53:58.653Z,8.1
2019-04-16T06:55:05.198Z,8.3
2019-04-16T06:56:10.467Z,8.4
2019-04-16T06:57:14.168Z,8.3
2019-04-16T06:58:19.450Z,8.4
2019-04-16T06:59:22.207Z,8.6
2019-04-16T07:00:24.477Z,8.5
2019-04-16T07:01:26.840Z,8.6
2019-04-16T07:02:28.953Z,8.3
2019-04-16T07:03:33.697Z,8.4
2019-04-16T07:04:36.205Z,8.4
2019-04-16T07:05:38.311Z,8.3
2019-04-16T07:06:44.076Z,8.7
2019-04-16T07:07:47.996Z,8.8
2019-04-16T07:08:51.748Z,9.2
2019-04-16T07:09:58.636Z,8.8
2019-04-16T07:11:01.518Z,8.9
2019-04-16T07:12:03.940Z,8.9
2019-04-16T07:13:12.299Z,8.8
2019-04-16T07:14:18.294Z,9.3
2019-04-16T07:15:30.599Z,8.9
2019-04-16T07:16:33.032Z,8.7
2019-04-16T07:17:35.690Z,8.8
2019-04-16T07:18:40.220Z,8.7
2019-04-16T07:19:43.988Z,8.8
2019-04-16T07:20:47.860Z,8.7
2019-04-16T07:21:51.102Z,8.6
2019-04-16T07:22:54.546Z,8.8
2019-04-16T07:24:00.325Z,9.1
2019-04-16T07:25:08.560Z,9.3
2019-04-16T07:26:17.018Z,9.3
2019-04-16T07:27:23.275Z,9
2019-04-16T07:28:28.341Z,9
2019-04-16T07:29:35.018Z,8.8
2019-04-16T07:30:42.363Z,9
2019-04-16T07:31:45.229Z,9
2019-04-16T07:32:47.656Z,9.2
2019-04-16T07:33:49.785Z,9.1
2019-04-16T07:34:51.918Z,9.3
2019-04-16T07:35:54.053Z,9.8
2019-04-16T07:37:03.007Z,10.1
2019-04-16T07:38:12.279Z,9.8
2019-04-16T07:39:31.088Z,9.8
2019-04-16T07:40:33.282Z,10
2019-04-16T07:41:35.417Z,10.1
2019-04-16T07:43:00.303Z,9.7
2019-04-16T07:44:12.413Z,9.7
2019-04-16T07:45:14.563Z,9.8
2019-04-16T07:46:16.671Z,10
2019-04-16T07:47:21.713Z,10.6
2019-04-16T07:48:24.688Z,10.8
2019-04-16T07:49:28.136Z,11.1
2019-04-16T07:50:34.187Z,10.7
2019-04-16T07:51:37.680Z,10.6
2019-04-16T07:52:43.575Z,10.1
2019-04-16T07:53:48.983Z,10.2
2019-04-16T07:54:51.110Z,10.5
2019-04-16T07:55:53.222Z,10.8
2019-04-16T07:56:56.096Z,11.3
2019-04-16T07:57:58.519Z,11.4
2019-04-16T07:59:03.981Z,11.1
2019-04-16T08:00:11.064Z,11.1
2019-04-16T08:01:17.458Z,10.9
2019-04-16T08:02:23.390Z,11.4
2019-04-16T08:03:28.712Z,11.4
2019-04-16T08:04:37.775Z,11.6
2019-04-16T08:05:42.897Z,12
2019-04-16T08:06:48.369Z,12.2
2019-04-16T08:07:54.581Z,12.1
2019-04-16T08:08:59.703Z,11.9
2019-04-16T08:10:04.623Z,12.4
2019-04-16T08:11:07.067Z,12.9
2019-04-16T08:12:31.917Z,13.4
2019-04-16T08:13:35.730Z,13.3
2019-04-16T08:14:37.864Z,12.8
2019-04-16T08:15:40.254Z,12.8
2019-04-16T08:16:49.195Z,13.1
2019-04-16T08:17:51.604Z,13.7
2019-04-16T08:18:53.723Z,13.6
2019-04-16T08:19:57.404Z,13.9
2019-04-16T08:21:13.593Z,14
2019-04-16T08:22:18.324Z,13.4
2019-04-16T08:23:22.109Z,13.2
2019-04-16T08:24:26.496Z,12.9
2019-04-16T08:25:35.865Z,12.6
2019-04-16T08:26:37.996Z,13.4
2019-04-16T08:27:40.140Z,13.7
2019-04-16T08:28:42.258Z,13.2
2019-04-16T08:29:44.699Z,13.2
2019-04-16T08:30:46.910Z,12.9
2019-04-16T08:31:49.042Z,13.6
2019-04-16T08:32:51.180Z,14.1
2019-04-16T08:33:53.316Z,13.8
2019-04-16T08:34:55.439Z,13.8
2019-04-16T08:35:57.790Z,14.1
2019-04-16T08:37:00.177Z,14.8
2019-04-16T08:38:02.628Z,15
2019-04-16T08:39:08.807Z,14.8
2019-04-16T08:40:14.387Z,15
2019-04-16T08:41:22.574Z,15
2019-04-16T08:42:46.244Z,14.9
2019-04-16T08:43:48.663Z,15.3
2019-04-16T08:44:50.801Z,15.2
2019-04-16T08:45:53.313Z,15.3
2019-04-16T08:46:59.731Z,14.5
2019-04-16T08:48:02.397Z,13.9
2019-04-16T08:49:04.537Z,14.3
2019-04-16T08:50:06.925Z,13.9
2019-04-16T08:51:09.400Z,14.1
2019-04-16T08:52:12.424Z,14.6
2019-04-16T08:53:15.511Z,14
2019-04-16T08:54:19.845Z,14.8
2019-04-16T08:55:25.222Z,14.8
2019-04-16T08:56:27.351Z,15.2
2019-04-16T08:57:34.049Z,15.4
2019-04-16T08:58:39.947Z,15.4
2019-04-16T08:59:44.313Z,15.5
2019-04-16T09:00:49.114Z,15
2019-04-16T09:01:56.190Z,15.8
2019-04-16T09:03:00.323Z,15.7
2019-04-16T09:04:04.228Z,16
2019-04-16T09:05:13.306Z,15.9
2019-04-16T09:06:15.595Z,16.1
2019-04-16T09:07:21.711Z,16.1
2019-04-16T09:08:23.890Z,16.2
2019-04-16T09:09:27.105Z,16
2019-04-16T09:10:32.095Z,16.1
2019-04-16T09:11:37.508Z,16.8
2019-04-16T09:13:06.575Z,16.9
2019-04-16T09:14:09.755Z,17
2019-04-16T09:15:12.430Z,17.2
2019-04-16T09:16:14.558Z,17
2019-04-16T09:17:16.692Z,17
2019-04-16T09:18:18.823Z,17
2019-04-16T09:19:20.969Z,16.5
2019-04-16T09:20:24.484Z,16.7
2019-04-16T09:21:29.217Z,16.9
2019-04-16T09:22:31.363Z,16.9
2019-04-16T09:23:33.533Z,17.6
2019-04-16T09:24:42.602Z,17.5
2019-04-16T09:25:48.024Z,17.6
2019-04-16T09:26:56.851Z,17.9
2019-04-16T09:28:07.209Z,16.9
2019-04-16T09:29:25.727Z,16.6
2019-04-16T09:30:28.289Z,16.3
2019-04-16T09:31:30.751Z,16
2019-04-16T09:32:32.918Z,16.7
2019-04-16T09:33:35.630Z,17.2
2019-04-16T09:34:41.371Z,17
2019-04-16T09:35:46.204Z,16.9
2019-04-16T09:36:48.331Z,17.1
2019-04-16T09:37:50.496Z,17.3
2019-04-16T09:38:53.031Z,17.9
2019-04-16T09:39:55.503Z,17.4
2019-04-16T09:40:57.634Z,17.2
2019-04-16T09:42:00.072Z,17.1
2019-04-16T09:43:19.155Z,17
2019-04-16T09:44:21.511Z,17.3
2019-04-16T09:45:26.348Z,17.6
2019-04-16T09:46:53.246Z,17.6
2019-04-16T09:47:55.398Z,17.9
2019-04-16T09:48:57.813Z,17.8
2019-04-16T09:49:59.947Z,17.9
2019-04-16T09:51:02.806Z,18.3
2019-04-16T09:52:05.658Z,18.2
2019-04-16T09:53:07.793Z,18.5
2019-04-16T09:54:15.358Z,18.3
2019-04-16T09:55:20.908Z,18.6
2019-04-16T09:56:31.387Z,18.3
2019-04-16T09:57:34.172Z,18.2
2019-04-16T09:58:43.499Z,18.5
2019-04-16T09:59:49.746Z,19
2019-04-16T10:00:52.206Z,19.4
2019-04-16T10:01:54.367Z,19.3
2019-04-16T10:02:56.498Z,19
2019-04-16T10:03:58.720Z,18.4
2019-04-16T10:05:00.859Z,18.6
2019-04-16T10:06:07.254Z,18.7
2019-04-16T10:07:09.738Z,19.1
2019-04-16T10:08:14.870Z,19
2019-04-16T10:09:23.891Z,19.3
2019-04-16T10:10:30.055Z,19.3
2019-04-16T10:11:37.358Z,18.9
2019-04-16T10:12:39.531Z,18.7
2019-04-16T10:13:42.011Z,18.6
2019-04-16T10:14:44.509Z,18.5
2019-04-16T10:15:46.685Z,19
2019-04-16T10:16:48.937Z,19.1
2019-04-16T10:17:51.116Z,18.4
2019-04-16T10:18:53.249Z,18.3
2019-04-16T10:19:55.464Z,18.6
2019-04-16T10:20:57.644Z,19.1
2019-04-16T10:21:59.859Z,18.7
2019-04-16T10:23:02.036Z,18.9
2019-04-16T10:24:04.280Z,18.8
2019-04-16T10:25:06.905Z,18
2019-04-16T10:26:09.402Z,17.9
2019-04-16T10:27:12.067Z,18.3
2019-04-16T10:28:14.926Z,18.6
2019-04-16T10:29:17.616Z,18.8
2019-04-16T10:30:20.185Z,18.5
2019-04-16T10:31:22.639Z,18.7
2019-04-16T10:32:24.900Z,18.8
2019-04-16T10:33:27.128Z,19
2019-04-16T10:34:29.760Z,19.2
2019-04-16T10:35:31.945Z,19.1
2019-04-16T10:36:39.507Z,19.4
2019-04-16T10:37:41.800Z,19.2
2019-04-16T10:38:44.067Z,19.1
2019-04-16T10:39:46.352Z,18.5
2019-04-16T10:40:48.572Z,19.3
2019-04-16T10:41:50.747Z,19.1
2019-04-16T10:42:53.039Z,19.3
2019-04-16T10:43:55.548Z,19
2019-04-16T10:44:58.031Z,19.1
2019-04-16T10:46:00.989Z,19.4
2019-04-16T10:47:03.260Z,19
2019-04-16T10:48:05.910Z,19
2019-04-16T10:49:08.455Z,18.7
2019-04-16T10:50:11.247Z,18.7
2019-04-16T10:51:17.497Z,18.3
2019-04-16T10:52:23.631Z,18.5
2019-04-16T10:53:25.880Z,18.8
2019-04-16T10:54:28.653Z,19.3
2019-04-16T10:55:30.924Z,19.8
2019-04-16T10:56:33.473Z,19.1
2019-04-16T10:57:39.638Z,19.3
2019-04-16T10:58:41.911Z,19.1
2019-04-16T10:59:44.175Z,18.5
2019-04-16T11:00:46.468Z,18.9
2019-04-16T11:01:49.368Z,19.3
2019-04-16T11:02:52.919Z,19
2019-04-16T11:03:55.226Z,19.9
2019-04-16T11:04:57.869Z,20.1
2019-04-16T11:06:00.462Z,20.3
2019-04-16T11:07:02.819Z,20.5
2019-04-16T11:08:09.078Z,20.5
2019-04-16T11:09:12.013Z,20
2019-04-16T11:10:14.311Z,20
2019-04-16T11:11:16.544Z,19.9
2019-04-16T11:12:21.417Z,19.9
2019-04-16T11:13:23.689Z,19.7
2019-04-16T11:14:25.974Z,19.1
2019-04-16T11:15:28.489Z,18.8
2019-04-16T11:16:30.818Z,19
2019-04-16T11:17:33.513Z,19
2019-04-16T11:18:36.155Z,19
2019-04-16T11:19:38.446Z,19.2
2019-04-16T11:20:41.106Z,18.8
2019-04-16T11:21:43.378Z,18.6
2019-04-16T11:22:45.992Z,18.9
2019-04-16T11:23:48.805Z,18.8
2019-04-16T11:24:52.511Z,19
2019-04-16T11:25:54.983Z,19.6
2019-04-16T11:26:57.123Z,20
2019-04-16T11:27:59.629Z,20.3
2019-04-16T11:29:02.197Z,19.8
2019-04-16T11:30:05.022Z,19.7
2019-04-16T11:31:07.257Z,19.2
2019-04-16T11:32:09.966Z,18.5
2019-04-16T11:33:12.710Z,18.9
2019-04-16T11:34:15.135Z,19.4
2019-04-16T11:35:24.014Z,19.9
2019-04-16T11:36:33.477Z,19.1
2019-04-16T11:37:37.622Z,18.7
2019-04-16T11:38:40.233Z,18.9
2019-04-16T11:39:42.501Z,19.5
2019-04-16T11:40:44.785Z,19.6
2019-04-16T11:41:47.322Z,19.5
2019-04-16T11:42:49.646Z,19.5
2019-04-16T11:43:51.873Z,19.6
2019-04-16T11:44:54.175Z,19.4
2019-04-16T11:45:56.408Z,20.3
2019-04-16T11:46:58.676Z,19.6
2019-04-16T11:48:00.945Z,20.1
2019-04-16T11:49:03.960Z,19.5
2019-04-16T11:50:06.130Z,20
2019-04-16T11:51:08.939Z,20
2019-04-16T11:52:11.758Z,20.5
2019-04-16T11:53:14.652Z,20.8
2019-04-16T11:54:17.450Z,19.6
2019-04-16T11:55:19.748Z,19.7
2019-04-16T11:56:24.342Z,19.6
2019-04-16T11:57:33.984Z,20
2019-04-16T11:58:36.494Z,19.8
2019-04-16T11:59:39.688Z,20.2
2019-04-16T12:00:42.252Z,20.2
2019-04-16T12:01:44.544Z,20.6
2019-04-16T12:02:47.151Z,20.1
2019-04-16T12:03:49.413Z,19.4
2019-04-16T12:04:59.618Z,19.5
2019-04-16T12:06:02.738Z,20
2019-04-16T12:07:07.788Z,20.4
2019-04-16T12:08:10.247Z,20.3
2019-04-16T12:09:12.738Z,20.6
2019-04-16T12:10:15.271Z,21
2019-04-16T12:11:17.553Z,20.4
2019-04-16T12:12:19.869Z,20.4
2019-04-16T12:13:22.187Z,20.1
2019-04-16T12:14:43.619Z,20.3
2019-04-16T12:15:46.051Z,20.4
2019-04-16T12:16:48.396Z,20.2
2019-04-16T12:17:50.638Z,20.3
2019-04-16T12:18:52.845Z,20.5
2019-04-16T12:19:55.634Z,20.3
2019-04-16T12:20:58.203Z,21.1
2019-04-16T12:22:00.575Z,20.4
2019-04-16T12:23:03.307Z,19.9
2019-04-16T12:24:06.158Z,19.7
2019-04-16T12:25:08.829Z,20.6
2019-04-16T12:26:11.696Z,20.8
2019-04-16T12:27:14.541Z,20.4
2019-04-16T12:28:16.874Z,20.3
2019-04-16T12:29:23.720Z,20.4
2019-04-16T12:30:26.398Z,20.3
2019-04-16T12:31:29.062Z,21
2019-04-16T12:32:31.404Z,21.3
2019-04-16T12:33:33.639Z,20.8
2019-04-16T12:34:36.264Z,20.6
2019-04-16T12:35:39.110Z,20.6
2019-04-16T12:36:41.426Z,20.6
2019-04-16T12:37:43.843Z,20.4
2019-04-16T12:38:46.257Z,20.1
2019-04-16T12:39:48.690Z,19.8
2019-04-16T12:40:51.109Z,20.7
2019-04-16T12:41:53.351Z,20.6
2019-04-16T12:42:56.012Z,20.7
2019-04-16T12:43:58.763Z,20.6
2019-04-16T12:45:02.395Z,20.5
2019-04-16T12:46:05.023Z,20.4
2019-04-16T12:47:07.819Z,20.7
2019-04-16T12:48:10.762Z,20.5
2019-04-16T12:49:13.327Z,20.8
2019-04-16T12:50:18.683Z,21.3
2019-04-16T12:51:21.097Z,21.3
2019-04-16T12:52:24.759Z,20.8
2019-04-16T12:53:27.448Z,21
2019-04-16T12:54:29.785Z,20.5
2019-04-16T12:55:33.785Z,20.4
2019-04-16T12:56:42.502Z,20.4
2019-04-16T12:57:49.075Z,20.4
2019-04-16T12:58:52.371Z,20.3
2019-04-16T12:59:57.024Z,20.5
2019-04-16T13:01:05.846Z,20.6
2019-04-16T13:02:15.117Z,20.8
2019-04-16T13:03:19.306Z,20.8
2019-04-16T13:04:21.445Z,21.3
2019-04-16T13:05:23.876Z,20.9
2019-04-16T13:06:28.368Z,20.9
2019-04-16T13:07:30.509Z,21.4
2019-04-16T13:08:32.641Z,21.7
2019-04-16T13:09:34.795Z,20.7
2019-04-16T13:10:37.008Z,20.8
2019-04-16T13:11:39.153Z,20.6
2019-04-16T13:12:41.321Z,20.5
2019-04-16T13:13:43.467Z,20.7
2019-04-16T13:15:03.143Z,20.7
2019-04-16T13:16:05.389Z,21.5
2019-04-16T13:17:07.514Z,20.9
2019-04-16T13:18:09.725Z,20.4
2019-04-16T13:19:12.039Z,20.6
2019-04-16T13:20:14.467Z,20.7
2019-04-16T13:21:16.607Z,21
2019-04-16T13:22:18.762Z,21.6
2019-04-16T13:23:20.893Z,21.2
2019-04-16T13:24:23.023Z,20.8
2019-04-16T13:25:25.452Z,20.5
2019-04-16T13:26:27.612Z,21
2019-04-16T13:27:30.119Z,20.5
2019-04-16T13:28:32.327Z,20.3
2019-04-16T13:29:34.494Z,20.5
2019-04-16T13:30:36.946Z,20.4
2019-04-16T13:31:40.545Z,20.4
2019-04-16T13:32:43.005Z,20.5
2019-04-16T13:33:51.525Z,20.8
2019-04-16T13:34:53.666Z,21
2019-04-16T13:35:55.818Z,21.4
2019-04-16T13:37:02.176Z,21.3
2019-04-16T13:38:11.293Z,20.4
2019-04-16T13:39:13.412Z,20
2019-04-16T13:40:15.573Z,19.7
2019-04-16T13:41:17.705Z,20.5
2019-04-16T13:42:19.839Z,20.4
2019-04-16T13:43:22.270Z,20.9
2019-04-16T13:44:24.405Z,21
2019-04-16T13:45:28.834Z,20.9
2019-04-16T13:46:35.169Z,21
2019-04-16T13:47:37.330Z,20.9
2019-04-16T13:48:43.944Z,20.9
2019-04-16T13:49:46.165Z,21.2
2019-04-16T13:50:48.370Z,21.1
2019-04-16T13:51:50.526Z,20.9
2019-04-16T13:52:56.706Z,21.4
2019-04-16T13:54:03.379Z,21
2019-04-16T13:55:11.669Z,20.7
2019-04-16T13:56:19.611Z,20.6
2019-04-16T13:57:21.865Z,20.6
2019-04-16T13:58:23.997Z,20.4
2019-04-16T13:59:32.849Z,20.5
2019-04-16T14:00:38.305Z,19.8
2019-04-16T14:01:47.075Z,19.7
2019-04-16T14:02:53.407Z,20.3
2019-04-16T14:03:58.077Z,20.3
2019-04-16T14:05:11.920Z,20.4
2019-04-16T14:06:14.427Z,20.3
2019-04-16T14:07:16.567Z,20.4
2019-04-16T14:08:19.086Z,20.5
2019-04-16T14:09:21.245Z,20.7
2019-04-16T14:10:23.398Z,20.5
2019-04-16T14:11:25.830Z,20.8
2019-04-16T14:12:44.080Z,21.3
2019-04-16T14:13:51.265Z,21.1
2019-04-16T14:14:53.406Z,20.8
2019-04-16T14:15:55.552Z,20.3
2019-04-16T14:16:57.686Z,20.6
2019-04-16T14:18:10.894Z,20.2
2019-04-16T14:19:13.043Z,20.5
2019-04-16T14:20:15.467Z,20.6
2019-04-16T14:21:17.594Z,21.1
2019-04-16T14:22:23.454Z,20.5
2019-04-16T14:23:25.599Z,21.3
2019-04-16T14:24:27.741Z,20.5
2019-04-16T14:25:29.897Z,21.3
2019-04-16T14:26:32.041Z,20.9
2019-04-16T14:27:34.187Z,21.7
2019-04-16T14:28:57.101Z,21.3
2019-04-16T14:30:01.134Z,21.6
2019-04-16T14:31:03.895Z,21.1
2019-04-16T14:32:06.336Z,20.7
2019-04-16T14:33:08.991Z,20.5
2019-04-16T14:34:11.181Z,20.8